createdAt,value
2019-03-23T00:00:18.329Z,82.40
2019-03-23T00:02:47.891Z,82.25
2019-03-23T00:05:17.472Z,81.66
2019-03-23T00:07:48.881Z,81.12
2019-03-23T00:10:18.319Z,81.02
2019-03-23T00:12:47.897Z,81.35
2019-03-23T00:15:17.490Z,81.76
2019-03-23T00:17:46.932Z,81.84
2019-03-23T00:20:19.665Z,81.87
2019-03-23T00:22:51.143Z,82.09
2019-03-23T00:25:20.323Z,82.19
2019-03-23T00:27:49.925Z,82.33
2019-03-23T00:30:19.425Z,82.47
2019-03-23T00:32:48.943Z,82.46
2019-03-23T00:35:18.433Z,82.38
2019-03-23T00:37:49.401Z,82.36
2019-03-23T00:40:18.889Z,82.53
2019-03-23T00:42:48.415Z,81.74
2019-03-23T00:45:18.476Z,81.56
2019-03-23T00:47:49.571Z,81.24
2019-03-23T00:50:19.010Z,81.19
2019-03-23T00:52:57.459Z,81.05
2019-03-23T00:55:26.913Z,80.84
2019-03-23T00:57:56.583Z,80.46
2019-03-23T01:00:26.033Z,79.96
2019-03-23T01:02:55.475Z,80.19
2019-03-23T01:05:24.923Z,80.08
2019-03-23T01:07:54.419Z,80.11
2019-03-23T01:10:23.957Z,79.79
2019-03-23T01:12:53.387Z,80.55
2019-03-23T01:15:22.907Z,81.34
2019-03-23T01:17:52.441Z,82.10
2019-03-23T01:20:21.867Z,83.21
2019-03-23T01:22:51.421Z,83.64
2019-03-23T01:25:20.989Z,82.93
2019-03-23T01:27:50.452Z,82.63
2019-03-23T01:30:20.028Z,82.06
2019-03-23T01:32:49.468Z,81.73
2019-03-23T01:35:18.904Z,82.00
2019-03-23T01:37:48.321Z,81.83
2019-03-23T01:40:17.762Z,81.65
2019-03-23T01:42:47.201Z,80.96
2019-03-23T01:45:16.989Z,80.87
2019-03-23T01:47:46.499Z,80.97
2019-03-23T01:50:18.851Z,81.28
2019-03-23T01:52:48.293Z,80.93
2019-03-23T01:55:17.716Z,81.03
2019-03-23T01:57:47.162Z,80.75
2019-03-23T02:00:16.721Z,80.78
2019-03-23T02:02:47.610Z,81.06
2019-03-23T02:05:18.286Z,81.57
2019-03-23T02:07:47.806Z,81.46
2019-03-23T02:10:18.336Z,81.17
2019-03-23T02:12:47.914Z,81.47
2019-03-23T02:15:17.468Z,80.88
2019-03-23T02:17:46.894Z,80.86
2019-03-23T02:20:16.772Z,80.95
2019-03-23T02:22:46.192Z,80.98
2019-03-23T02:25:15.664Z,80.80
2019-03-23T02:27:45.058Z,81.00
2019-03-23T02:30:14.769Z,80.87
2019-03-23T02:32:44.182Z,81.11
2019-03-23T02:35:14.331Z,81.19
2019-03-23T02:37:43.744Z,81.59
2019-03-23T02:40:13.346Z,81.60
2019-03-23T02:42:42.758Z,81.59
2019-03-23T02:45:13.145Z,81.86
2019-03-23T02:47:42.662Z,81.51
2019-03-23T02:50:12.255Z,80.52
2019-03-23T02:52:41.662Z,80.65
2019-03-23T02:55:11.650Z,81.47
2019-03-23T02:57:41.071Z,81.32
2019-03-23T03:00:13.199Z,82.60
2019-03-23T03:02:42.776Z,83.20
2019-03-23T03:05:12.435Z,83.41
2019-03-23T03:07:43.611Z,82.82
2019-03-23T03:10:16.131Z,82.88
2019-03-23T03:12:45.569Z,82.76
2019-03-23T03:15:15.133Z,82.32
2019-03-23T03:17:44.552Z,82.07
2019-03-23T03:20:14.132Z,82.11
2019-03-23T03:22:43.557Z,81.93
2019-03-23T03:25:13.238Z,82.30
2019-03-23T03:27:42.653Z,82.19
2019-03-23T03:30:12.585Z,82.25
2019-03-23T03:32:41.982Z,82.19
2019-03-23T03:35:11.855Z,82.21
2019-03-23T03:37:55.399Z,82.79
2019-03-23T03:40:12.635Z,83.03
2019-03-23T03:42:42.175Z,82.41
2019-03-23T03:45:14.651Z,82.19
2019-03-23T03:47:44.066Z,82.40
2019-03-23T03:50:13.595Z,82.72
2019-03-23T03:52:43.035Z,82.64
2019-03-23T03:55:12.587Z,82.67
2019-03-23T03:57:42.042Z,82.11
2019-03-23T04:00:11.909Z,82.48
2019-03-23T04:02:41.433Z,82.51
2019-03-23T04:05:10.991Z,82.56
2019-03-23T04:07:41.083Z,82.21
2019-03-23T04:10:11.173Z,82.56
2019-03-23T04:12:40.735Z,82.58
2019-03-23T04:15:10.931Z,82.59
2019-03-23T04:17:40.408Z,82.94
2019-03-23T04:20:11.276Z,83.89
2019-03-23T04:22:40.694Z,85.60
2019-03-23T04:25:11.230Z,85.46
2019-03-23T04:27:40.648Z,85.55
2019-03-23T04:30:11.689Z,85.17
2019-03-23T04:32:41.182Z,85.01
2019-03-23T04:35:10.858Z,84.82
2019-03-23T04:37:40.302Z,84.86
2019-03-23T04:40:12.411Z,84.74
2019-03-23T04:42:41.982Z,84.96
2019-03-23T04:45:12.294Z,85.03
2019-03-23T04:47:41.713Z,85.04
2019-03-23T04:50:12.796Z,85.20
2019-03-23T04:52:42.320Z,85.43
2019-03-23T04:55:12.993Z,85.85
2019-03-23T04:57:42.569Z,85.95
2019-03-23T05:00:15.042Z,86.16
2019-03-23T05:02:44.599Z,86.23
2019-03-23T05:05:14.187Z,86.45
2019-03-23T05:07:43.634Z,87.32
2019-03-23T05:10:13.399Z,87.66
2019-03-23T05:12:42.856Z,87.66
2019-03-23T05:15:12.542Z,88.16
2019-03-23T05:17:41.975Z,88.75
2019-03-23T05:20:13.404Z,88.71
2019-03-23T05:22:42.831Z,88.92
2019-03-23T05:25:15.332Z,89.20
2019-03-23T05:27:44.752Z,89.35
2019-03-23T05:30:15.285Z,89.18
2019-03-23T05:32:44.712Z,89.27
2019-03-23T05:35:14.234Z,89.33
2019-03-23T05:37:44.629Z,89.57
2019-03-23T05:40:14.227Z,89.41
2019-03-23T05:42:43.660Z,89.25
2019-03-23T05:45:13.247Z,89.67
2019-03-23T05:47:42.701Z,89.72
2019-03-23T05:50:12.365Z,89.18
2019-03-23T05:52:41.815Z,89.53
2019-03-23T05:55:11.483Z,89.46
2019-03-23T05:57:40.928Z,89.61
2019-03-23T06:00:12.732Z,89.32
2019-03-23T06:02:42.190Z,89.16
2019-03-23T06:05:11.688Z,89.22
2019-03-23T06:07:41.141Z,88.98
2019-03-23T06:10:11.008Z,88.99
2019-03-23T06:12:40.478Z,89.09
2019-03-23T06:15:10.141Z,88.82
2019-03-23T06:17:39.593Z,88.33
2019-03-23T06:20:10.075Z,87.85
2019-03-23T06:22:39.496Z,87.53
2019-03-23T06:25:09.074Z,87.79
2019-03-23T06:27:38.519Z,87.50
2019-03-23T06:30:11.189Z,87.59
2019-03-23T06:32:40.628Z,87.27
2019-03-23T06:35:10.194Z,87.77
2019-03-23T06:37:39.707Z,87.87
2019-03-23T06:40:11.691Z,87.96
2019-03-23T06:42:41.134Z,87.67
2019-03-23T06:45:11.578Z,87.56
2019-03-23T06:47:41.014Z,87.62
2019-03-23T06:50:11.581Z,87.85
2019-03-23T06:52:41.093Z,87.33
2019-03-23T06:55:10.973Z,87.16
2019-03-23T06:57:40.396Z,86.48
2019-03-23T07:00:17.029Z,86.69
2019-03-23T07:02:46.492Z,86.99
2019-03-23T07:05:15.917Z,86.54
2019-03-23T07:07:45.367Z,86.51
2019-03-23T07:10:15.132Z,86.24
2019-03-23T07:12:44.652Z,86.64
2019-03-23T07:15:20.043Z,86.48
2019-03-23T07:17:46.085Z,86.68
2019-03-23T07:20:15.653Z,86.40
2019-03-23T07:22:45.175Z,86.26
2019-03-23T07:25:14.762Z,85.71
2019-03-23T07:27:44.188Z,85.65
2019-03-23T07:30:15.692Z,85.45
2019-03-23T07:32:45.345Z,85.43
2019-03-23T07:35:15.337Z,85.50
2019-03-23T07:37:44.837Z,85.88
2019-03-23T07:40:14.649Z,85.86
2019-03-23T07:42:44.089Z,85.51
2019-03-23T07:45:17.099Z,85.60
2019-03-23T07:47:46.550Z,84.44
2019-03-23T07:50:16.145Z,84.23
2019-03-23T07:52:45.659Z,84.14
2019-03-23T07:55:16.240Z,84.02
2019-03-23T07:57:45.809Z,84.04
2019-03-23T08:00:22.714Z,84.16
2019-03-23T08:02:52.149Z,84.05
2019-03-23T08:05:21.672Z,83.81
2019-03-23T08:07:51.100Z,83.79
2019-03-23T08:10:31.389Z,83.82
2019-03-23T08:13:01.345Z,83.91
2019-03-23T08:15:31.055Z,83.78
2019-03-23T08:18:00.637Z,83.60
2019-03-23T08:20:30.180Z,83.56
2019-03-23T08:22:59.674Z,83.43
2019-03-23T08:25:29.202Z,83.30
2019-03-23T08:27:58.699Z,83.19
2019-03-23T08:30:28.151Z,82.64
2019-03-23T08:32:57.654Z,82.20
2019-03-23T08:35:27.113Z,82.10
2019-03-23T08:37:56.538Z,82.76
2019-03-23T08:40:25.994Z,82.48
2019-03-23T08:42:55.422Z,82.87
2019-03-23T08:45:24.954Z,82.69
2019-03-23T08:47:54.470Z,82.83
2019-03-23T08:50:23.926Z,82.27
2019-03-23T08:52:53.388Z,81.89
2019-03-23T08:55:22.974Z,82.14
2019-03-23T08:57:52.437Z,81.98
2019-03-23T09:00:21.925Z,82.10
2019-03-23T09:02:51.442Z,81.50
2019-03-23T09:05:20.872Z,81.51
2019-03-23T09:07:52.539Z,81.51
2019-03-23T09:10:21.538Z,81.36
2019-03-23T09:12:51.171Z,80.81
2019-03-23T09:15:20.605Z,80.51
2019-03-23T09:17:50.098Z,80.73
2019-03-23T09:20:19.606Z,80.89
2019-03-23T09:22:49.035Z,80.61
2019-03-23T09:25:18.578Z,81.00
2019-03-23T09:27:48.182Z,81.51
2019-03-23T09:30:17.767Z,81.38
2019-03-23T09:32:47.196Z,81.72
2019-03-23T09:35:16.654Z,81.69
2019-03-23T09:37:46.175Z,81.39
2019-03-23T09:40:15.696Z,81.65
2019-03-23T09:42:45.308Z,81.22
2019-03-23T09:45:14.892Z,80.12
2019-03-23T09:47:44.485Z,79.81
2019-03-23T09:50:14.011Z,80.43
2019-03-23T09:52:43.512Z,80.10
2019-03-23T09:55:12.942Z,79.89
2019-03-23T09:57:42.453Z,79.70
2019-03-23T10:00:13.223Z,79.48
2019-03-23T10:02:42.676Z,79.28
2019-03-23T10:05:12.284Z,79.47
2019-03-23T10:07:41.786Z,79.25
2019-03-23T10:10:21.219Z,78.95
2019-03-23T10:12:43.589Z,78.88
2019-03-23T10:15:13.191Z,78.51
2019-03-23T10:17:42.641Z,78.50
2019-03-23T10:20:12.164Z,78.04
2019-03-23T10:22:42.487Z,77.95
2019-03-23T10:25:12.098Z,78.42
2019-03-23T10:27:41.534Z,78.58
2019-03-23T10:30:11.930Z,78.94
2019-03-23T10:32:41.369Z,78.68
2019-03-23T10:35:11.171Z,78.05
2019-03-23T10:37:40.711Z,78.48
2019-03-23T10:40:11.482Z,77.87
2019-03-23T10:42:43.241Z,77.04
2019-03-23T10:45:12.477Z,76.73
2019-03-23T10:47:42.109Z,77.20
2019-03-23T10:50:11.738Z,77.37
2019-03-23T10:52:42.246Z,76.74
2019-03-23T10:55:11.751Z,76.17
2019-03-23T10:57:41.218Z,75.43
2019-03-23T11:00:13.387Z,75.42
2019-03-23T11:02:43.192Z,75.47
2019-03-23T11:05:13.004Z,75.12
2019-03-23T11:07:42.428Z,75.49
2019-03-23T11:10:15.123Z,74.92
2019-03-23T11:12:46.031Z,74.47
2019-03-23T11:15:15.509Z,73.97
2019-03-23T11:17:44.933Z,73.85
2019-03-23T11:20:15.145Z,74.14
2019-03-23T11:22:44.728Z,73.90
2019-03-23T11:25:14.398Z,74.25
2019-03-23T11:27:43.942Z,73.77
2019-03-23T11:30:14.208Z,73.76
2019-03-23T11:32:43.728Z,72.88
2019-03-23T11:35:13.452Z,72.27
2019-03-23T11:37:43.343Z,71.61
2019-03-23T11:40:13.020Z,71.70
2019-03-23T11:42:49.657Z,71.36
2019-03-23T11:45:14.159Z,70.54
2019-03-23T11:47:44.753Z,70.15
2019-03-23T11:50:14.363Z,70.13
2019-03-23T11:52:43.821Z,69.08
2019-03-23T11:55:13.421Z,69.08
2019-03-23T11:57:42.938Z,69.00
2019-03-23T12:00:15.001Z,69.56
2019-03-23T12:02:45.591Z,69.12
2019-03-23T12:05:15.167Z,68.95
2019-03-23T12:07:44.615Z,68.95
2019-03-23T12:10:15.363Z,68.65
2019-03-23T12:12:44.951Z,67.58
2019-03-23T12:15:14.985Z,67.58
2019-03-23T12:17:44.506Z,67.37
2019-03-23T12:20:14.167Z,66.90
2019-03-23T12:22:43.611Z,66.71
2019-03-23T12:25:13.478Z,67.48
2019-03-23T12:27:42.945Z,66.74
2019-03-23T12:30:15.515Z,67.13
2019-03-23T12:32:45.041Z,67.35
2019-03-23T12:35:14.815Z,66.78
2019-03-23T12:37:44.423Z,67.19
2019-03-23T12:40:14.108Z,67.26
2019-03-23T12:42:43.629Z,67.45
2019-03-23T12:45:13.788Z,67.25
2019-03-23T12:47:44.312Z,67.26
2019-03-23T12:50:14.916Z,67.39
2019-03-23T12:52:44.455Z,67.69
2019-03-23T12:55:13.976Z,67.36
2019-03-23T12:57:43.466Z,67.48
2019-03-23T13:00:15.888Z,66.52
2019-03-23T13:02:45.553Z,65.33
2019-03-23T13:05:15.055Z,65.40
2019-03-23T13:07:44.589Z,66.46
2019-03-23T13:10:14.750Z,66.11
2019-03-23T13:12:44.423Z,65.75
2019-03-23T13:15:15.925Z,65.66
2019-03-23T13:17:45.448Z,64.05
2019-03-23T13:20:15.109Z,64.20
2019-03-23T13:22:44.595Z,63.20
2019-03-23T13:25:14.047Z,63.44
2019-03-23T13:27:43.559Z,63.32
2019-03-23T13:30:17.666Z,62.95
2019-03-23T13:32:47.107Z,62.60
2019-03-23T13:35:16.632Z,62.61
2019-03-23T13:37:46.149Z,63.40
2019-03-23T13:40:15.678Z,62.94
2019-03-23T13:42:45.115Z,62.82
2019-03-23T13:45:14.816Z,62.80
2019-03-23T13:47:44.461Z,62.73
2019-03-23T13:50:15.490Z,64.39
2019-03-23T13:52:44.921Z,63.54
2019-03-23T13:55:26.762Z,62.81
2019-03-23T13:57:56.278Z,62.66
2019-03-23T14:00:25.796Z,62.42
2019-03-23T14:02:55.247Z,62.33
2019-03-23T14:05:24.840Z,62.32
2019-03-23T14:07:54.280Z,62.88
2019-03-23T14:10:23.736Z,62.89
2019-03-23T14:12:53.194Z,63.11
2019-03-23T14:15:22.708Z,62.57
2019-03-23T14:17:52.205Z,63.53
2019-03-23T14:20:21.724Z,64.17
2019-03-23T14:22:51.148Z,64.79
2019-03-23T14:25:20.695Z,64.74
2019-03-23T14:27:50.109Z,64.25
2019-03-23T14:30:19.644Z,64.45
2019-03-23T14:32:49.075Z,65.12
2019-03-23T14:35:18.534Z,65.61
2019-03-23T14:37:47.963Z,66.30
2019-03-23T14:40:17.413Z,66.71
2019-03-23T14:42:46.922Z,66.85
2019-03-23T14:45:18.122Z,67.14
2019-03-23T14:47:47.654Z,67.22
2019-03-23T14:50:17.167Z,67.43
2019-03-23T14:52:46.791Z,67.98
2019-03-23T14:55:16.227Z,68.46
2019-03-23T14:57:45.843Z,68.36
2019-03-23T15:00:19.401Z,68.25
2019-03-23T15:02:48.862Z,68.48
2019-03-23T15:05:18.294Z,68.72
2019-03-23T15:07:47.747Z,69.02
2019-03-23T15:10:17.364Z,68.79
2019-03-23T15:12:47.692Z,69.12
2019-03-23T15:15:17.136Z,69.50
2019-03-23T15:17:48.968Z,69.82
2019-03-23T15:20:17.849Z,69.60
2019-03-23T15:22:49.642Z,69.62
2019-03-23T15:25:22.157Z,70.00
2019-03-23T15:27:51.595Z,70.43
2019-03-23T15:30:21.051Z,70.84
2019-03-23T15:32:50.483Z,70.37
2019-03-23T15:35:20.067Z,70.21
2019-03-23T15:37:49.493Z,70.36
2019-03-23T15:40:19.020Z,70.83
2019-03-23T15:42:48.519Z,71.20
2019-03-23T15:45:17.982Z,71.43
2019-03-23T15:47:49.465Z,71.33
2019-03-23T15:50:21.717Z,71.73
2019-03-23T15:52:50.237Z,72.23
2019-03-23T15:55:19.829Z,72.31
2019-03-23T15:57:49.266Z,72.16
2019-03-23T16:00:19.150Z,72.45
2019-03-23T16:02:48.588Z,73.66
2019-03-23T16:05:18.136Z,74.39
2019-03-23T16:07:47.647Z,74.57
2019-03-23T16:10:17.222Z,74.65
2019-03-23T16:12:49.522Z,74.57
2019-03-23T16:15:19.106Z,74.53
2019-03-23T16:17:48.630Z,74.64
2019-03-23T16:20:18.205Z,74.69
2019-03-23T16:22:47.665Z,74.83
2019-03-23T16:25:17.081Z,74.95
2019-03-23T16:27:46.615Z,74.87
2019-03-23T16:30:19.113Z,74.98
2019-03-23T16:32:49.626Z,75.72
2019-03-23T16:35:19.087Z,75.69
2019-03-23T16:37:50.163Z,75.52
2019-03-23T16:40:19.705Z,75.52
2019-03-23T16:42:49.129Z,76.24
2019-03-23T16:45:18.666Z,76.42
2019-03-23T16:47:48.094Z,76.09
2019-03-23T16:50:17.695Z,76.44
2019-03-23T16:52:47.125Z,76.99
2019-03-23T16:55:18.286Z,77.11
2019-03-23T16:57:47.806Z,77.33
2019-03-23T17:00:20.349Z,77.85
2019-03-23T17:02:49.847Z,78.62
2019-03-23T17:05:19.300Z,78.62
2019-03-23T17:07:48.809Z,79.50
2019-03-23T17:10:18.350Z,80.24
2019-03-23T17:12:55.164Z,80.24
2019-03-23T17:15:19.133Z,81.89
2019-03-23T17:17:48.645Z,83.17
2019-03-23T17:20:18.079Z,83.52
2019-03-23T17:22:48.615Z,83.74
2019-03-23T17:25:18.047Z,83.50
2019-03-23T17:27:47.523Z,83.40
2019-03-23T17:30:17.221Z,83.79
2019-03-23T17:32:48.197Z,83.82
2019-03-23T17:35:17.722Z,83.50
2019-03-23T17:37:47.183Z,83.60
2019-03-23T17:40:16.607Z,83.58
2019-03-23T17:42:46.215Z,83.32
2019-03-23T17:45:15.761Z,83.64
2019-03-23T17:47:46.271Z,83.89
2019-03-23T17:50:15.866Z,84.07
2019-03-23T17:52:45.735Z,84.01
2019-03-23T17:55:15.210Z,84.26
2019-03-23T17:57:45.809Z,84.23
2019-03-23T18:00:15.372Z,84.28
2019-03-23T18:02:46.596Z,84.35
2019-03-23T18:05:18.707Z,84.81
2019-03-23T18:07:48.369Z,84.38
2019-03-23T18:10:17.863Z,84.27
2019-03-23T18:12:47.500Z,84.50
2019-03-23T18:15:17.032Z,84.45
2019-03-23T18:17:46.554Z,84.11
2019-03-23T18:20:16.051Z,84.09
2019-03-23T18:22:45.572Z,83.76
2019-03-23T18:25:15.238Z,83.54
2019-03-23T18:27:44.712Z,83.85
2019-03-23T18:30:36.907Z,84.13
2019-03-23T18:33:06.407Z,84.43
2019-03-23T18:35:35.994Z,83.61
2019-03-23T18:38:10.210Z,83.46
2019-03-23T18:40:39.709Z,83.73
2019-03-23T18:43:09.289Z,83.16
2019-03-23T18:45:38.882Z,83.05
2019-03-23T18:48:09.816Z,83.70
2019-03-23T18:50:40.017Z,83.77
2019-03-23T18:53:09.518Z,83.81
2019-03-23T18:55:40.827Z,84.18
2019-03-23T18:58:10.545Z,83.57
2019-03-23T19:00:42.102Z,83.61
2019-03-23T19:03:11.898Z,83.34
2019-03-23T19:05:41.865Z,83.41
2019-03-23T19:08:12.011Z,83.87
2019-03-23T19:10:42.654Z,83.81
2019-03-23T19:13:12.147Z,83.44
2019-03-23T19:15:41.640Z,83.28
2019-03-23T19:18:11.152Z,83.14
2019-03-23T19:20:42.609Z,83.31
2019-03-23T19:23:13.985Z,83.27
2019-03-23T19:25:43.410Z,83.11
2019-03-23T19:28:15.189Z,82.66
2019-03-23T19:30:44.638Z,82.83
2019-03-23T19:33:14.072Z,82.70
2019-03-23T19:35:46.253Z,82.61
2019-03-23T19:38:15.675Z,82.74
2019-03-23T19:40:45.808Z,82.96
2019-03-23T19:43:15.238Z,83.02
2019-03-23T19:45:46.274Z,82.77
2019-03-23T19:48:17.214Z,82.83
2019-03-23T19:50:46.668Z,82.63
2019-03-23T19:53:16.113Z,82.50
2019-03-23T19:55:45.537Z,82.58
2019-03-23T19:58:14.986Z,82.63
2019-03-23T20:00:44.454Z,82.80
2019-03-23T20:03:14.056Z,83.28
2019-03-23T20:05:43.525Z,83.71
2019-03-23T20:08:13.224Z,83.58
2019-03-23T20:10:44.895Z,83.57
2019-03-23T20:13:14.507Z,83.58
2019-03-23T20:15:43.950Z,83.95
2019-03-23T20:18:16.148Z,83.80
2019-03-23T20:20:45.571Z,83.39
2019-03-23T20:23:15.107Z,83.41
2019-03-23T20:25:47.591Z,83.20
2019-03-23T20:28:18.108Z,83.21
2019-03-23T20:30:50.446Z,83.51
2019-03-23T20:33:19.968Z,83.43
2019-03-23T20:35:49.476Z,83.69
2019-03-23T20:38:22.032Z,83.53
2019-03-23T20:40:53.340Z,83.52
2019-03-23T20:43:22.753Z,83.78
2019-03-23T20:45:55.183Z,84.00
2019-03-23T20:48:24.905Z,83.98
2019-03-23T20:50:56.450Z,83.81
2019-03-23T20:53:26.188Z,84.07
2019-03-23T20:55:55.711Z,84.04
2019-03-23T20:58:26.742Z,83.95
2019-03-23T21:00:57.051Z,83.91
2019-03-23T21:03:26.473Z,84.17
2019-03-23T21:05:55.938Z,84.04
2019-03-23T21:08:26.367Z,84.03
2019-03-23T21:10:55.806Z,83.96
2019-03-23T21:13:25.359Z,83.56
2019-03-23T21:15:54.939Z,83.64
2019-03-23T21:18:27.623Z,83.46
2019-03-23T21:20:57.166Z,83.13
2019-03-23T21:23:26.746Z,82.78
2019-03-23T21:25:56.248Z,82.82
2019-03-23T21:28:25.702Z,82.79
2019-03-23T21:30:55.263Z,82.71
2019-03-23T21:33:24.718Z,82.51
2019-03-23T21:35:54.130Z,82.28
2019-03-23T21:38:23.579Z,82.34
2019-03-23T21:40:53.024Z,82.26
2019-03-23T21:43:22.445Z,82.62
2019-03-23T21:45:51.890Z,82.66
2019-03-23T21:48:21.379Z,81.92
2019-03-23T21:50:50.834Z,82.43
2019-03-23T21:53:21.912Z,82.17
2019-03-23T21:55:52.896Z,82.24
2019-03-23T21:58:25.160Z,82.37
2019-03-23T22:00:54.612Z,82.16
2019-03-23T22:03:24.158Z,81.82
2019-03-23T22:05:53.598Z,80.52
2019-03-23T22:08:23.044Z,80.05
2019-03-23T22:10:53.045Z,80.25
2019-03-23T22:13:22.490Z,80.23
2019-03-23T22:15:52.480Z,80.15
2019-03-23T22:18:21.927Z,79.76
2019-03-23T22:20:51.341Z,79.60
2019-03-23T22:23:22.012Z,79.71
2019-03-23T22:25:51.372Z,79.27
2019-03-23T22:28:22.333Z,79.32
2019-03-23T22:30:53.849Z,79.41
2019-03-23T22:33:23.282Z,79.01
2019-03-23T22:35:52.701Z,79.27
2019-03-23T22:38:22.152Z,79.12
2019-03-23T22:40:51.569Z,79.35
2019-03-23T22:43:21.016Z,78.72
2019-03-23T22:45:50.501Z,79.28
2019-03-23T22:48:21.586Z,79.73
2019-03-23T22:50:51.003Z,79.43
2019-03-23T22:53:20.473Z,79.16
2019-03-23T22:55:49.886Z,79.04
2019-03-23T22:58:19.330Z,79.40
2019-03-23T23:00:49.789Z,79.66
2019-03-23T23:03:19.552Z,80.06
2019-03-23T23:05:48.976Z,80.38
2019-03-23T23:08:19.067Z,80.36
2019-03-23T23:10:48.560Z,80.58
2019-03-23T23:13:18.456Z,80.57
2019-03-23T23:15:47.903Z,80.30
2019-03-23T23:18:17.412Z,80.52
2019-03-23T23:20:47.339Z,80.55
2019-03-23T23:23:16.754Z,80.36
2019-03-23T23:25:49.116Z,80.22
2019-03-23T23:28:18.599Z,80.67
2019-03-23T23:30:51.713Z,80.20
2019-03-23T23:33:21.138Z,80.42
2019-03-23T23:35:50.652Z,80.92
2019-03-23T23:38:23.610Z,80.84
2019-03-23T23:40:54.124Z,81.04
2019-03-23T23:43:28.098Z,80.85
2019-03-23T23:45:57.620Z,80.53
2019-03-23T23:48:27.052Z,80.89
2019-03-23T23:50:56.506Z,80.48
2019-03-23T23:53:26.006Z,81.06
2019-03-23T23:55:55.468Z,80.71
2019-03-23T23:58:24.891Z,80.46
